sensor_id;sensor_type;location;lat;lon;timestamp;P1;durP1;ratioP1;P2;durP2;ratioP2
18592;SDS011;9426;54.118;17.948;2022-07-05T00:02:21;4.70;;;3.70;;
18592;SDS011;9426;54.118;17.948;2022-07-05T00:07:47;6.47;;;3.50;;
18592;SDS011;9426;54.118;17.948;2022-07-05T00:13:10;7.07;;;3.60;;
18592;SDS011;9426;54.118;17.948;2022-07-05T00:18:34;3.43;;;3.10;;
18592;SDS011;9426;54.118;17.948;2022-07-05T00:23:58;5.03;;;3.93;;
18592;SDS011;9426;54.118;17.948;2022-07-05T00:29:22;4.63;;;3.60;;
18592;SDS011;9426;54.118;17.948;2022-07-05T00:34:45;5.40;;;3.50;;
18592;SDS011;9426;54.118;17.948;2022-07-05T00:40:11;4.00;;;3.30;;
18592;SDS011;9426;54.118;17.948;2022-07-05T00:45:34;4.17;;;3.60;;
18592;SDS011;9426;54.118;17.948;2022-07-05T00:50:57;10.23;;;4.10;;
18592;SDS011;9426;54.118;17.948;2022-07-05T00:56:22;9.43;;;4.50;;
18592;SDS011;9426;54.118;17.948;2022-07-05T01:01:47;7.27;;;4.47;;
18592;SDS011;9426;54.118;17.948;2022-07-05T01:07:10;8.43;;;4.53;;
18592;SDS011;9426;54.118;17.948;2022-07-05T01:12:34;5.70;;;4.20;;
18592;SDS011;9426;54.118;17.948;2022-07-05T01:18:00;5.50;;;4.00;;
18592;SDS011;9426;54.118;17.948;2022-07-05T01:23:26;4.60;;;3.93;;
18592;SDS011;9426;54.118;17.948;2022-07-05T01:28:50;4.53;;;4.10;;
18592;SDS011;9426;54.118;17.948;2022-07-05T01:34:13;6.27;;;4.33;;
18592;SDS011;9426;54.118;17.948;2022-07-05T01:39:38;5.13;;;4.37;;
18592;SDS011;9426;54.118;17.948;2022-07-05T01:45:02;5.07;;;4.10;;
18592;SDS011;9426;54.118;17.948;2022-07-05T01:50:26;5.77;;;4.30;;
18592;SDS011;9426;54.118;17.948;2022-07-05T01:55:53;4.77;;;3.90;;
18592;SDS011;9426;54.118;17.948;2022-07-05T02:01:31;5.20;;;4.10;;
18592;SDS011;9426;54.118;17.948;2022-07-05T02:06:55;6.43;;;4.63;;
18592;SDS011;9426;54.118;17.948;2022-07-05T02:12:20;4.33;;;3.93;;
18592;SDS011;9426;54.118;17.948;2022-07-05T02:17:44;6.20;;;4.40;;
18592;SDS011;9426;54.118;17.948;2022-07-05T02:23:08;5.37;;;4.07;;
18592;SDS011;9426;54.118;17.948;2022-07-05T02:28:35;5.40;;;3.97;;
18592;SDS011;9426;54.118;17.948;2022-07-05T02:33:59;7.10;;;4.93;;
18592;SDS011;9426;54.118;17.948;2022-07-05T02:39:22;7.33;;;4.37;;
18592;SDS011;9426;54.118;17.948;2022-07-05T02:44:50;5.80;;;4.40;;
18592;SDS011;9426;54.118;17.948;2022-07-05T02:50:15;6.70;;;5.07;;
18592;SDS011;9426;54.118;17.948;2022-07-05T02:55:43;6.37;;;5.10;;
18592;SDS011;9426;54.118;17.948;2022-07-05T03:01:08;6.60;;;4.77;;
18592;SDS011;9426;54.118;17.948;2022-07-05T03:06:33;7.63;;;4.93;;
18592;SDS011;9426;54.118;17.948;2022-07-05T03:11:57;7.07;;;5.50;;
18592;SDS011;9426;54.118;17.948;2022-07-05T03:17:22;8.87;;;5.67;;
18592;SDS011;9426;54.118;17.948;2022-07-05T03:22:46;6.47;;;5.70;;
18592;SDS011;9426;54.118;17.948;2022-07-05T03:28:13;5.43;;;4.83;;
18592;SDS011;9426;54.118;17.948;2022-07-05T03:33:40;7.07;;;5.63;;
18592;SDS011;9426;54.118;17.948;2022-07-05T03:39:05;6.73;;;5.13;;
18592;SDS011;9426;54.118;17.948;2022-07-05T03:44:30;9.27;;;5.10;;
18592;SDS011;9426;54.118;17.948;2022-07-05T03:49:58;6.80;;;4.03;;
18592;SDS011;9426;54.118;17.948;2022-07-05T03:55:22;5.03;;;3.10;;
18592;SDS011;9426;54.118;17.948;2022-07-05T04:00:46;4.60;;;2.90;;
18592;SDS011;9426;54.118;17.948;2022-07-05T04:06:15;5.23;;;2.57;;
18592;SDS011;9426;54.118;17.948;2022-07-05T04:11:38;2.10;;;1.90;;
18592;SDS011;9426;54.118;17.948;2022-07-05T04:17:02;4.20;;;2.53;;
18592;SDS011;9426;54.118;17.948;2022-07-05T04:22:28;5.80;;;2.73;;
18592;SDS011;9426;54.118;17.948;2022-07-05T04:27:53;4.93;;;2.10;;
18592;SDS011;9426;54.118;17.948;2022-07-05T04:33:18;3.87;;;2.27;;
18592;SDS011;9426;54.118;17.948;2022-07-05T04:38:46;3.43;;;2.10;;
18592;SDS011;9426;54.118;17.948;2022-07-05T04:44:10;5.33;;;2.00;;
18592;SDS011;9426;54.118;17.948;2022-07-05T04:49:34;3.43;;;1.60;;
18592;SDS011;9426;54.118;17.948;2022-07-05T04:54:59;4.20;;;1.90;;
18592;SDS011;9426;54.118;17.948;2022-07-05T05:00:23;5.60;;;2.23;;
18592;SDS011;9426;54.118;17.948;2022-07-05T05:05:46;4.20;;;1.90;;
18592;SDS011;9426;54.118;17.948;2022-07-05T05:11:11;4.13;;;1.90;;
18592;SDS011;9426;54.118;17.948;2022-07-05T05:16:54;3.80;;;2.10;;
18592;SDS011;9426;54.118;17.948;2022-07-05T05:22:18;5.10;;;2.30;;
18592;SDS011;9426;54.118;17.948;2022-07-05T05:27:43;6.33;;;1.60;;
18592;SDS011;9426;54.118;17.948;2022-07-05T05:33:08;6.00;;;1.93;;
18592;SDS011;9426;54.118;17.948;2022-07-05T05:38:31;3.00;;;1.70;;
18592;SDS011;9426;54.118;17.948;2022-07-05T05:43:56;15.07;;;6.43;;
18592;SDS011;9426;54.118;17.948;2022-07-05T05:49:20;2.03;;;1.37;;
18592;SDS011;9426;54.118;17.948;2022-07-05T05:54:43;3.90;;;1.60;;
18592;SDS011;9426;54.118;17.948;2022-07-05T06:00:08;5.13;;;1.40;;
18592;SDS011;9426;54.118;17.948;2022-07-05T06:05:32;2.40;;;1.37;;
18592;SDS011;9426;54.118;17.948;2022-07-05T06:10:56;5.43;;;1.60;;
18592;SDS011;9426;54.118;17.948;2022-07-05T06:16:23;1.97;;;1.10;;
18592;SDS011;9426;54.118;17.948;2022-07-05T06:21:47;3.13;;;1.67;;
18592;SDS011;9426;54.118;17.948;2022-07-05T06:27:10;2.83;;;1.50;;
18592;SDS011;9426;54.118;17.948;2022-07-05T06:32:35;5.57;;;1.60;;
18592;SDS011;9426;54.118;17.948;2022-07-05T06:37:59;3.97;;;1.50;;
18592;SDS011;9426;54.118;17.948;2022-07-05T06:43:22;4.33;;;1.60;;
18592;SDS011;9426;54.118;17.948;2022-07-05T06:48:56;4.03;;;1.03;;
18592;SDS011;9426;54.118;17.948;2022-07-05T06:54:19;2.83;;;1.00;;
18592;SDS011;9426;54.118;17.948;2022-07-05T07:00:03;1.83;;;1.00;;
18592;SDS011;9426;54.118;17.948;2022-07-05T07:05:47;1.97;;;0.90;;
18592;SDS011;9426;54.118;17.948;2022-07-05T07:11:27;1.97;;;0.80;;
18592;SDS011;9426;54.118;17.948;2022-07-05T07:16:51;2.80;;;0.87;;
18592;SDS011;9426;54.118;17.948;2022-07-05T07:22:15;1.83;;;0.77;;
18592;SDS011;9426;54.118;17.948;2022-07-05T07:27:42;5.23;;;0.80;;
18592;SDS011;9426;54.118;17.948;2022-07-05T07:33:06;4.10;;;1.00;;
18592;SDS011;9426;54.118;17.948;2022-07-05T07:38:34;2.27;;;1.13;;
18592;SDS011;9426;54.118;17.948;2022-07-05T07:43:57;1.33;;;0.83;;
18592;SDS011;9426;54.118;17.948;2022-07-05T07:49:22;4.33;;;1.30;;
18592;SDS011;9426;54.118;17.948;2022-07-05T07:54:47;3.80;;;1.30;;
18592;SDS011;9426;54.118;17.948;2022-07-05T08:00:11;6.70;;;1.40;;
18592;SDS011;9426;54.118;17.948;2022-07-05T08:05:34;6.73;;;1.30;;
18592;SDS011;9426;54.118;17.948;2022-07-05T08:11:00;3.23;;;1.10;;
18592;SDS011;9426;54.118;17.948;2022-07-05T08:16:23;2.20;;;1.03;;
18592;SDS011;9426;54.118;17.948;2022-07-05T08:21:46;3.77;;;1.20;;
18592;SDS011;9426;54.118;17.948;2022-07-05T08:27:12;1.30;;;0.90;;
18592;SDS011;9426;54.118;17.948;2022-07-05T08:32:36;14.50;;;1.77;;
18592;SDS011;9426;54.118;17.948;2022-07-05T08:37:59;2.57;;;1.10;;
18592;SDS011;9426;54.118;17.948;2022-07-05T08:43:24;3.43;;;1.30;;
18592;SDS011;9426;54.118;17.948;2022-07-05T08:48:50;3.47;;;1.30;;
18592;SDS011;9426;54.118;17.948;2022-07-05T08:54:14;1.97;;;1.00;;
18592;SDS011;9426;54.118;17.948;2022-07-05T08:59:41;3.77;;;1.00;;
18592;SDS011;9426;54.118;17.948;2022-07-05T09:05:05;2.40;;;1.30;;
18592;SDS011;9426;54.118;17.948;2022-07-05T09:10:30;5.13;;;1.30;;
18592;SDS011;9426;54.118;17.948;2022-07-05T09:15:55;2.97;;;1.10;;
18592;SDS011;9426;54.118;17.948;2022-07-05T09:21:19;5.70;;;1.10;;
18592;SDS011;9426;54.118;17.948;2022-07-05T09:26:44;2.00;;;1.10;;
18592;SDS011;9426;54.118;17.948;2022-07-05T09:32:10;6.43;;;1.47;;
18592;SDS011;9426;54.118;17.948;2022-07-05T09:37:45;3.67;;;1.20;;
18592;SDS011;9426;54.118;17.948;2022-07-05T09:43:12;1.97;;;1.10;;
18592;SDS011;9426;54.118;17.948;2022-07-05T09:48:50;2.27;;;1.10;;
18592;SDS011;9426;54.118;17.948;2022-07-05T09:54:14;3.70;;;0.97;;
18592;SDS011;9426;54.118;17.948;2022-07-05T09:59:37;4.23;;;1.20;;
18592;SDS011;9426;54.118;17.948;2022-07-05T10:05:09;3.90;;;1.20;;
18592;SDS011;9426;54.118;17.948;2022-07-05T10:10:33;3.23;;;0.97;;
18592;SDS011;9426;54.118;17.948;2022-07-05T10:15:57;1.60;;;1.00;;
18592;SDS011;9426;54.118;17.948;2022-07-05T10:21:21;5.03;;;1.30;;
18592;SDS011;9426;54.118;17.948;2022-07-05T10:26:46;4.37;;;1.20;;
18592;SDS011;9426;54.118;17.948;2022-07-05T10:32:10;4.13;;;1.27;;
18592;SDS011;9426;54.118;17.948;2022-07-05T10:37:36;3.57;;;0.90;;
18592;SDS011;9426;54.118;17.948;2022-07-05T10:43:00;3.03;;;1.17;;
18592;SDS011;9426;54.118;17.948;2022-07-05T10:48:25;2.73;;;1.13;;
18592;SDS011;9426;54.118;17.948;2022-07-05T10:54:01;3.80;;;1.27;;
18592;SDS011;9426;54.118;17.948;2022-07-05T10:59:25;4.90;;;1.20;;
18592;SDS011;9426;54.118;17.948;2022-07-05T11:04:54;5.77;;;1.30;;
18592;SDS011;9426;54.118;17.948;2022-07-05T11:10:20;6.20;;;1.60;;
18592;SDS011;9426;54.118;17.948;2022-07-05T11:21:59;3.10;;;1.20;;
18592;SDS011;9426;54.118;17.948;2022-07-05T11:27:27;3.53;;;1.30;;
18592;SDS011;9426;54.118;17.948;2022-07-05T11:32:52;2.80;;;1.27;;
18592;SDS011;9426;54.118;17.948;2022-07-05T11:38:15;3.20;;;1.27;;
18592;SDS011;9426;54.118;17.948;2022-07-05T11:43:56;4.15;;;1.30;;
18592;SDS011;9426;54.118;17.948;2022-07-05T11:49:21;6.35;;;1.15;;
18592;SDS011;9426;54.118;17.948;2022-07-05T11:54:45;0.88;;;0.75;;
18592;SDS011;9426;54.118;17.948;2022-07-05T12:00:13;2.97;;;1.00;;
18592;SDS011;9426;54.118;17.948;2022-07-05T12:05:48;2.65;;;1.20;;
18592;SDS011;9426;54.118;17.948;2022-07-05T12:11:13;8.10;;;1.15;;
18592;SDS011;9426;54.118;17.948;2022-07-05T12:22:38;2.17;;;0.90;;
18592;SDS011;9426;54.118;17.948;2022-07-05T12:28:03;2.67;;;1.17;;
18592;SDS011;9426;54.118;17.948;2022-07-05T12:33:29;4.18;;;1.27;;
18592;SDS011;9426;54.118;17.948;2022-07-05T12:38:58;3.17;;;1.27;;
18592;SDS011;9426;54.118;17.948;2022-07-05T12:44:21;2.15;;;1.30;;
18592;SDS011;9426;54.118;17.948;2022-07-05T12:49:54;3.15;;;0.98;;
18592;SDS011;9426;54.118;17.948;2022-07-05T12:55:18;0.93;;;0.75;;
18592;SDS011;9426;54.118;17.948;2022-07-05T13:00:59;2.25;;;1.00;;
18592;SDS011;9426;54.118;17.948;2022-07-05T13:06:24;1.40;;;0.80;;
18592;SDS011;9426;54.118;17.948;2022-07-05T13:12:09;4.32;;;1.00;;
18592;SDS011;9426;54.118;17.948;2022-07-05T13:17:33;4.72;;;1.08;;
18592;SDS011;9426;54.118;17.948;2022-07-05T13:22:58;2.58;;;1.10;;
18592;SDS011;9426;54.118;17.948;2022-07-05T13:28:21;3.45;;;1.02;;
18592;SDS011;9426;54.118;17.948;2022-07-05T13:33:45;2.58;;;1.02;;
18592;SDS011;9426;54.118;17.948;2022-07-05T13:39:10;1.13;;;0.73;;
18592;SDS011;9426;54.118;17.948;2022-07-05T13:44:34;2.30;;;1.00;;
18592;SDS011;9426;54.118;17.948;2022-07-05T13:49:58;1.95;;;1.10;;
18592;SDS011;9426;54.118;17.948;2022-07-05T13:55:36;1.77;;;0.85;;
18592;SDS011;9426;54.118;17.948;2022-07-05T14:00:59;5.13;;;1.15;;
18592;SDS011;9426;54.118;17.948;2022-07-05T14:06:24;3.30;;;0.98;;
18592;SDS011;9426;54.118;17.948;2022-07-05T14:11:48;2.85;;;1.20;;
18592;SDS011;9426;54.118;17.948;2022-07-05T14:17:12;2.75;;;1.20;;
18592;SDS011;9426;54.118;17.948;2022-07-05T14:22:35;2.15;;;1.10;;
18592;SDS011;9426;54.118;17.948;2022-07-05T14:28:00;4.28;;;1.25;;
18592;SDS011;9426;54.118;17.948;2022-07-05T14:33:23;3.10;;;1.02;;
18592;SDS011;9426;54.118;17.948;2022-07-05T14:38:47;5.78;;;1.00;;
18592;SDS011;9426;54.118;17.948;2022-07-05T14:44:12;3.75;;;1.30;;
18592;SDS011;9426;54.118;17.948;2022-07-05T14:49:37;2.67;;;1.27;;
18592;SDS011;9426;54.118;17.948;2022-07-05T14:55:00;2.67;;;1.25;;
18592;SDS011;9426;54.118;17.948;2022-07-05T15:00:25;4.28;;;1.23;;
18592;SDS011;9426;54.118;17.948;2022-07-05T15:05:48;3.20;;;1.30;;
18592;SDS011;9426;54.118;17.948;2022-07-05T15:11:12;5.43;;;1.70;;
18592;SDS011;9426;54.118;17.948;2022-07-05T15:16:37;3.77;;;1.20;;
18592;SDS011;9426;54.118;17.948;2022-07-05T15:22:01;6.70;;;1.47;;
18592;SDS011;9426;54.118;17.948;2022-07-05T15:27:24;3.17;;;1.30;;
18592;SDS011;9426;54.118;17.948;2022-07-05T15:32:53;4.40;;;1.70;;
18592;SDS011;9426;54.118;17.948;2022-07-05T15:38:20;2.33;;;1.40;;
18592;SDS011;9426;54.118;17.948;2022-07-05T15:43:43;3.07;;;1.30;;
18592;SDS011;9426;54.118;17.948;2022-07-05T15:49:07;2.87;;;1.37;;
18592;SDS011;9426;54.118;17.948;2022-07-05T15:54:31;5.20;;;1.27;;
18592;SDS011;9426;54.118;17.948;2022-07-05T15:59:55;3.33;;;1.25;;
18592;SDS011;9426;54.118;17.948;2022-07-05T16:05:21;1.55;;;0.82;;
18592;SDS011;9426;54.118;17.948;2022-07-05T16:10:44;2.38;;;1.00;;
18592;SDS011;9426;54.118;17.948;2022-07-05T16:16:07;2.08;;;0.90;;
18592;SDS011;9426;54.118;17.948;2022-07-05T16:21:35;5.75;;;1.10;;
18592;SDS011;9426;54.118;17.948;2022-07-05T16:26:59;3.00;;;1.08;;
18592;SDS011;9426;54.118;17.948;2022-07-05T16:32:22;7.80;;;1.25;;
18592;SDS011;9426;54.118;17.948;2022-07-05T16:37:47;3.05;;;1.15;;
18592;SDS011;9426;54.118;17.948;2022-07-05T16:43:10;4.22;;;1.25;;
18592;SDS011;9426;54.118;17.948;2022-07-05T16:48:34;4.10;;;1.17;;
18592;SDS011;9426;54.118;17.948;2022-07-05T16:53:59;2.05;;;1.45;;
18592;SDS011;9426;54.118;17.948;2022-07-05T16:59:23;2.95;;;1.30;;
18592;SDS011;9426;54.118;17.948;2022-07-05T17:04:46;6.17;;;1.10;;
18592;SDS011;9426;54.118;17.948;2022-07-05T17:10:11;1.60;;;0.93;;
18592;SDS011;9426;54.118;17.948;2022-07-05T17:15:35;4.03;;;1.30;;
18592;SDS011;9426;54.118;17.948;2022-07-05T17:20:58;3.07;;;1.30;;
18592;SDS011;9426;54.118;17.948;2022-07-05T17:26:24;4.07;;;1.10;;
18592;SDS011;9426;54.118;17.948;2022-07-05T17:31:53;2.80;;;1.20;;
18592;SDS011;9426;54.118;17.948;2022-07-05T17:37:17;1.93;;;0.87;;
18592;SDS011;9426;54.118;17.948;2022-07-05T17:42:41;4.07;;;1.33;;
18592;SDS011;9426;54.118;17.948;2022-07-05T17:48:05;5.07;;;1.40;;
18592;SDS011;9426;54.118;17.948;2022-07-05T17:53:29;2.23;;;1.20;;
18592;SDS011;9426;54.118;17.948;2022-07-05T17:58:53;1.20;;;0.80;;
18592;SDS011;9426;54.118;17.948;2022-07-05T18:04:17;1.90;;;1.10;;
18592;SDS011;9426;54.118;17.948;2022-07-05T18:09:40;3.33;;;1.17;;
18592;SDS011;9426;54.118;17.948;2022-07-05T18:15:06;4.17;;;1.10;;
18592;SDS011;9426;54.118;17.948;2022-07-05T18:20:31;1.93;;;0.90;;
18592;SDS011;9426;54.118;17.948;2022-07-05T18:25:54;2.80;;;1.17;;
18592;SDS011;9426;54.118;17.948;2022-07-05T18:31:20;2.33;;;0.97;;
18592;SDS011;9426;54.118;17.948;2022-07-05T18:36:44;3.50;;;1.10;;
18592;SDS011;9426;54.118;17.948;2022-07-05T18:42:08;2.17;;;1.00;;
18592;SDS011;9426;54.118;17.948;2022-07-05T18:47:33;3.60;;;1.00;;
18592;SDS011;9426;54.118;17.948;2022-07-05T18:52:56;3.30;;;0.63;;
18592;SDS011;9426;54.118;17.948;2022-07-05T18:58:20;2.20;;;0.80;;
18592;SDS011;9426;54.118;17.948;2022-07-05T19:03:44;1.93;;;1.10;;
18592;SDS011;9426;54.118;17.948;2022-07-05T19:09:08;2.83;;;0.70;;
18592;SDS011;9426;54.118;17.948;2022-07-05T19:14:49;1.70;;;0.90;;
18592;SDS011;9426;54.118;17.948;2022-07-05T19:20:17;3.30;;;1.10;;
18592;SDS011;9426;54.118;17.948;2022-07-05T19:25:53;1.80;;;1.03;;
18592;SDS011;9426;54.118;17.948;2022-07-05T19:31:16;2.07;;;1.07;;
18592;SDS011;9426;54.118;17.948;2022-07-05T19:36:45;2.80;;;1.00;;
18592;SDS011;9426;54.118;17.948;2022-07-05T19:42:08;4.07;;;1.20;;
18592;SDS011;9426;54.118;17.948;2022-07-05T19:47:32;1.93;;;0.93;;
18592;SDS011;9426;54.118;17.948;2022-07-05T19:52:57;2.00;;;0.97;;
18592;SDS011;9426;54.118;17.948;2022-07-05T19:58:20;1.67;;;0.87;;
18592;SDS011;9426;54.118;17.948;2022-07-05T20:03:44;2.67;;;1.10;;
18592;SDS011;9426;54.118;17.948;2022-07-05T20:09:08;5.60;;;1.10;;
18592;SDS011;9426;54.118;17.948;2022-07-05T20:14:32;1.53;;;0.83;;
18592;SDS011;9426;54.118;17.948;2022-07-05T20:19:58;1.23;;;1.00;;
18592;SDS011;9426;54.118;17.948;2022-07-05T20:25:23;2.07;;;0.90;;
18592;SDS011;9426;54.118;17.948;2022-07-05T20:30:50;1.43;;;1.10;;
18592;SDS011;9426;54.118;17.948;2022-07-05T20:36:19;1.13;;;0.87;;
18592;SDS011;9426;54.118;17.948;2022-07-05T20:41:48;2.67;;;1.20;;
18592;SDS011;9426;54.118;17.948;2022-07-05T20:47:19;3.03;;;1.20;;
18592;SDS011;9426;54.118;17.948;2022-07-05T20:52:47;4.60;;;1.27;;
18592;SDS011;9426;54.118;17.948;2022-07-05T20:58:19;4.53;;;1.10;;
18592;SDS011;9426;54.118;17.948;2022-07-05T21:03:49;1.70;;;1.27;;
18592;SDS011;9426;54.118;17.948;2022-07-05T21:09:16;1.50;;;1.03;;
18592;SDS011;9426;54.118;17.948;2022-07-05T21:14:41;5.30;;;1.90;;
18592;SDS011;9426;54.118;17.948;2022-07-05T21:20:06;1.60;;;1.30;;
18592;SDS011;9426;54.118;17.948;2022-07-05T21:25:31;3.47;;;1.10;;
18592;SDS011;9426;54.118;17.948;2022-07-05T21:30:56;3.07;;;1.53;;
18592;SDS011;9426;54.118;17.948;2022-07-05T21:36:20;2.13;;;1.23;;
18592;SDS011;9426;54.118;17.948;2022-07-05T21:41:44;2.03;;;1.30;;
18592;SDS011;9426;54.118;17.948;2022-07-05T21:47:11;3.47;;;1.20;;
18592;SDS011;9426;54.118;17.948;2022-07-05T21:52:35;2.43;;;1.30;;
18592;SDS011;9426;54.118;17.948;2022-07-05T21:57:58;3.00;;;1.60;;
18592;SDS011;9426;54.118;17.948;2022-07-05T22:03:24;3.27;;;1.60;;
18592;SDS011;9426;54.118;17.948;2022-07-05T22:09:06;3.33;;;1.33;;
18592;SDS011;9426;54.118;17.948;2022-07-05T22:14:30;3.50;;;1.53;;
18592;SDS011;9426;54.118;17.948;2022-07-05T22:19:56;4.33;;;1.50;;
18592;SDS011;9426;54.118;17.948;2022-07-05T22:25:20;2.77;;;1.30;;
18592;SDS011;9426;54.118;17.948;2022-07-05T22:30:45;3.03;;;1.40;;
18592;SDS011;9426;54.118;17.948;2022-07-05T22:36:10;3.07;;;1.40;;
18592;SDS011;9426;54.118;17.948;2022-07-05T22:41:35;1.90;;;1.60;;
18592;SDS011;9426;54.118;17.948;2022-07-05T22:46:59;4.13;;;1.90;;
18592;SDS011;9426;54.118;17.948;2022-07-05T22:52:25;4.67;;;2.00;;
18592;SDS011;9426;54.118;17.948;2022-07-05T22:57:49;7.07;;;2.30;;
18592;SDS011;9426;54.118;17.948;2022-07-05T23:03:13;6.13;;;2.40;;
18592;SDS011;9426;54.118;17.948;2022-07-05T23:08:40;4.40;;;2.30;;
18592;SDS011;9426;54.118;17.948;2022-07-05T23:14:05;4.17;;;2.20;;
18592;SDS011;9426;54.118;17.948;2022-07-05T23:19:29;3.77;;;2.40;;
18592;SDS011;9426;54.118;17.948;2022-07-05T23:24:55;5.60;;;2.57;;
18592;SDS011;9426;54.118;17.948;2022-07-05T23:30:19;4.13;;;2.43;;
18592;SDS011;9426;54.118;17.948;2022-07-05T23:35:43;4.10;;;2.17;;
18592;SDS011;9426;54.118;17.948;2022-07-05T23:41:09;8.47;;;2.80;;
18592;SDS011;9426;54.118;17.948;2022-07-05T23:46:33;5.00;;;2.93;;
18592;SDS011;9426;54.118;17.948;2022-07-05T23:51:58;4.87;;;2.97;;
18592;SDS011;9426;54.118;17.948;2022-07-05T23:57:24;7.83;;;2.97;;
